Blue Star Naxos — SZUI — position and weather

sailwx.info

Track history (hours):
 
Tides and Currents Weather Stations Pressure Air Temp Water Temp Dewpoint Dewpoint Depression Visibility Wind Speed Wind Dir Waves Ship Positions

Blue Star Naxos

Last reported at 2018-Jun-24 04:51 UTC. Time now 2018-Jun-24 07:05 UTC.
Position N 37°40' E 023°47'.

Length 124 m; draft 5 m.

Type: Passenger vessel. MMSI: 239923000.

Date/timePositionNaut miles runAvg speedWind from/ knotsBaromVisibWave heightAir tempDewpointWater temp
2018-Jun-24 04:51N 37°40' E 023°47'721.2
2018-Jun-24 04:30N 37°45' E 023°40'1122.6
2018-Jun-24 04:01N 37°56' E 023°37'1 2.8
2018-Jun-24 03:30N 37°57' E 023°38'0 0.0
2018-Jun-24 03:00N 37°57' E 023°38'0 0.0
2018-Jun-24 02:30N 37°57' E 023°38'0 0.0
2018-Jun-24 02:01N 37°57' E 023°38'0 0.0
2018-Jun-24 01:30N 37°57' E 023°38'2 3.6
2018-Jun-24 01:01N 37°55' E 023°37'1121.0
2018-Jun-24 00:30N 37°46' E 023°43'5821.6
2018-Jun-23 21:48N 37°18' E 024°47'622.0
2018-Jun-23 21:30N 37°14' E 024°54'1121.7
2018-Jun-23 21:00N 37°07' E 025°05'3 4.1
2018-Jun-23 20:19N 37°06' E 025°07'619.2
2018-Jun-23 20:00N 37°10' E 025°13'816.1
2018-Jun-23 19:30N 37°06' E 025°22'2 4.1
2018-Jun-23 19:00N 37°08' E 025°24'1216.7
2018-Jun-23 18:17N 37°10' E 025°38'5 0.7
2018-Jun-23 10:53N 37°07' E 025°44'1320.2
2018-Jun-23 10:15N 37°11' E 025°29'521.5
2018-Jun-23 10:01N 37°08' E 025°24'2 4.4
2018-Jun-23 09:31N 37°06' E 025°22'917.5
2018-Jun-23 09:00N 37°09' E 025°12'5 5.9
2018-Jun-23 08:09N 37°06' E 025°07'322.3
2018-Jun-23 08:00N 37°08' E 025°04'1122.4
2018-Jun-23 07:31N 37°14' E 024°53'5921.9
2018-Jun-23 04:49N 37°39' E 023°46'720.8
2018-Jun-23 04:30N 37°44' E 023°40'1122.3
2018-Jun-23 04:00N 37°55' E 023°37'2 4.2
2018-Jun-23 03:31N 37°57' E 023°38'0 0.0
2018-Jun-23 03:00N 37°57' E 023°38'0 0.0
2018-Jun-23 02:31N 37°57' E 023°38'0 0.0
2018-Jun-23 02:00N 37°57' E 023°38'0 0.0
2018-Jun-23 01:31N 37°57' E 023°38'3 6.5
2018-Jun-23 01:01N 37°54' E 023°38'1121.3
2018-Jun-23 00:30N 37°44' E 023°43'5621.1
2018-Jun-22 21:52N 37°19' E 024°45'821.8
2018-Jun-22 21:30N 37°14' E 024°53'1121.6
2018-Jun-22 21:00N 37°07' E 025°04'4 6.6
2018-Jun-22 20:24N 37°05' E 025°08'615.0
2018-Jun-22 20:00N 37°10' E 025°13'816.2
2018-Jun-22 19:30N 37°06' E 025°22'2 3.2
2018-Jun-22 19:00N 37°08' E 025°23'1317.1
2018-Jun-22 18:16N 37°10' E 025°39'520.1
2018-Jun-22 18:00N 37°07' E 025°44'0 0.0
2018-Jun-22 11:00N 37°07' E 025°44'1320.7
2018-Jun-22 10:22N 37°12' E 025°29'821.5
2018-Jun-22 10:00N 37°07' E 025°22'0 1.0
2018-Jun-22 09:30N 37°06' E 025°22'714.3
2018-Jun-22 09:00N 37°10' E 025°15'7 8.5
2018-Jun-22 08:10N 37°05' E 025°07'322.7
2018-Jun-22 08:00N 37°08' E 025°04'1122.7
2018-Jun-22 07:30N 37°15' E 024°53'5821.9
2018-Jun-22 04:52N 37°39' E 023°47'820.9
2018-Jun-22 04:28N 37°45' E 023°40'1021.8
2018-Jun-22 04:01N 37°55' E 023°37'2 3.9
2018-Jun-22 03:30N 37°57' E 023°38'0 0.0
2018-Jun-22 03:00N 37°57' E 023°38'0 0.0
2018-Jun-22 02:30N 37°57' E 023°38'0 0.0
2018-Jun-22 02:00N 37°57' E 023°38'0 0.0
2018-Jun-22 01:29N 37°57' E 023°38'2 3.7
2018-Jun-22 01:00N 37°55' E 023°37'1121.4
2018-Jun-22 00:30N 37°46' E 023°43'1221.0
2018-Jun-21 23:56N 37°38' E 023°54'4722.1
2018-Jun-21 21:48N 37°17' E 024°48'722.4
2018-Jun-21 21:30N 37°14' E 024°54'1122.1
2018-Jun-21 21:00N 37°07' E 025°05'2 3.5
2018-Jun-21 20:27N 37°06' E 025°07'819.1
2018-Jun-21 20:01N 37°10' E 025°16'612.1
2018-Jun-21 19:31N 37°06' E 025°22'510.7
2018-Jun-21 19:01N 37°02' E 025°19'3 0.4
2018-Jun-21 10:19N 36°59' E 025°21'618.2
2018-Jun-21 10:00N 37°05' E 025°19'3 5.9
2018-Jun-21 09:28N 37°06' E 025°22'816.9
2018-Jun-21 09:00N 37°10' E 025°13'6 7.7
2018-Jun-21 08:10N 37°06' E 025°07'422.6
2018-Jun-21 08:00N 37°08' E 025°03'1122.8
2018-Jun-21 07:30N 37°15' E 024°52'5621.8
2018-Jun-21 04:55N 37°39' E 023°48'921.0
2018-Jun-21 04:30N 37°45' E 023°40'1122.0
2018-Jun-21 04:00N 37°56' E 023°37'1 2.9
2018-Jun-21 03:30N 37°57' E 023°38'0 0.0
2018-Jun-21 02:59N 37°57' E 023°38'0 0.0
2018-Jun-21 02:30N 37°57' E 023°38'0 0.0
2018-Jun-21 02:00N 37°57' E 023°38'0 0.0
2018-Jun-21 01:29N 37°57' E 023°38'1 2.8
2018-Jun-21 01:01N 37°56' E 023°37'1020.5
2018-Jun-21 00:30N 37°47' E 023°42'1121.4
2018-Jun-21 00:00N 37°39' E 023°51'4822.0
2018-Jun-20 21:50N 37°19' E 024°46'722.2
2018-Jun-20 21:30N 37°14' E 024°53'1121.9
2018-Jun-20 21:00N 37°08' E 025°04'4 6.3
2018-Jun-20 20:21N 37°05' E 025°08'515.1
2018-Jun-20 19:59N 37°09' E 025°13'816.9
2018-Jun-20 19:30N 37°06' E 025°22'1 1.2
2018-Jun-20 19:00N 37°07' E 025°22'1316.7
2018-Jun-20 18:13N 37°10' E 025°38'419.6
2018-Jun-20 18:00N 37°08' E 025°43'1 0.2
2018-Jun-20 10:49N 37°07' E 025°44'1320.8
2018-Jun-20 10:13N 37°12' E 025°29'521.2
2018-Jun-20 09:59N 37°09' E 025°25'3 6.9
2018-Jun-20 09:31N 37°06' E 025°22'916.4
2018-Jun-20 08:58N 37°09' E 025°12'5 6.4
2018-Jun-20 08:11N 37°06' E 025°07'422.2
2018-Jun-20 08:00N 37°08' E 025°03'1122.4
2018-Jun-20 07:30N 37°15' E 024°52'5821.6
2018-Jun-20 04:50N 37°39' E 023°46'721.1
2018-Jun-20 04:30N 37°45' E 023°40'1122.2
2018-Jun-20 04:01N 37°55' E 023°37'2 3.5
2018-Jun-20 03:31N 37°57' E 023°38'0 0.0
2018-Jun-20 03:00N 37°57' E 023°38'0 0.0
2018-Jun-20 02:30N 37°57' E 023°38'0 0.0
2018-Jun-20 02:01N 37°57' E 023°38'0 0.1
2018-Jun-20 01:30N 37°57' E 023°38'2 4.0
2018-Jun-20 01:01N 37°55' E 023°37'1121.2
2018-Jun-20 00:30N 37°45' E 023°43'5821.4
2018-Jun-19 21:47N 37°18' E 024°47'621.8
2018-Jun-19 21:30N 37°14' E 024°53'1121.5
2018-Jun-19 21:01N 37°08' E 025°04'3 4.9
2018-Jun-19 20:22N 37°06' E 025°07'719.0
2018-Jun-19 20:00N 37°10' E 025°14'714.8
2018-Jun-19 19:31N 37°06' E 025°22'5 9.5
2018-Jun-19 19:01N 37°03' E 025°18'4 0.5
2018-Jun-19 10:07N 36°59' E 025°21'219.8
2018-Jun-19 10:01N 37°01' E 025°20'611.2
2018-Jun-19 09:30N 37°06' E 025°22'612.2
2018-Jun-19 09:00N 37°10' E 025°16'9 9.3
2018-Jun-19 08:05N 37°06' E 025°07'222.4
2018-Jun-19 08:00N 37°07' E 025°05'1122.7
2018-Jun-19 07:30N 37°14' E 024°54'6021.9
2018-Jun-19 04:45N 37°40' E 023°45'521.7
2018-Jun-19 04:30N 37°44' E 023°41'1122.5
2018-Jun-19 04:00N 37°55' E 023°37'2 4.9
2018-Jun-19 03:30N 37°57' E 023°38'0 0.0
2018-Jun-19 03:01N 37°57' E 023°38'0 0.0
2018-Jun-19 02:30N 37°57' E 023°38'0 0.0
2018-Jun-19 01:59N 37°57' E 023°38'0 0.0
2018-Jun-19 01:30N 37°57' E 023°38'1 2.8
2018-Jun-19 01:00N 37°56' E 023°37'1020.5
2018-Jun-19 00:31N 37°47' E 023°42'5921.6
2018-Jun-18 21:47N 37°18' E 024°47'622.4
2018-Jun-18 21:30N 37°14' E 024°53'1122.1
2018-Jun-18 21:00N 37°08' E 025°04'3 3.9
2018-Jun-18 20:18N 37°06' E 025°07'619.6
2018-Jun-18 20:00N 37°09' E 025°13'816.5
2018-Jun-18 19:30N 37°06' E 025°22'1 2.5
2018-Jun-18 19:01N 37°07' E 025°23'1216.7
2018-Jun-18 18:16N 37°10' E 025°38'519.3
2018-Jun-18 18:00N 37°07' E 025°44'1 0.1
2018-Jun-18 10:25N 37°07' E 025°44'1320.4
2018-Jun-18 09:47N 37°12' E 025°29'621.8
2018-Jun-18 09:30N 37°08' E 025°23'4 7.5
2018-Jun-18 09:00N 37°09' E 025°19'911.2
2018-Jun-18 08:11N 37°05' E 025°08'420.5
2018-Jun-18 08:00N 37°07' E 025°05'1122.9
2018-Jun-18 07:30N 37°14' E 024°53'6122.1
2018-Jun-18 04:46N 37°40' E 023°44'622.3
2018-Jun-18 04:30N 37°45' E 023°40'1122.4
2018-Jun-18 04:00N 37°56' E 023°37'2 3.3
2018-Jun-18 03:30N 37°57' E 023°38'0 0.0
2018-Jun-18 03:00N 37°57' E 023°38'0 0.0
2018-Jun-18 02:30N 37°57' E 023°38'0 0.0
2018-Jun-18 02:00N 37°57' E 023°38'0 0.0
2018-Jun-18 01:29N 37°57' E 023°38'1 2.8
2018-Jun-18 01:00N 37°56' E 023°37'1020.6
2018-Jun-18 00:30N 37°47' E 023°42'5821.6
2018-Jun-17 21:50N 37°18' E 024°46'822.7
2018-Jun-17 21:31N 37°14' E 024°53'1121.9
2018-Jun-17 21:01N 37°07' E 025°04'3 4.2
2018-Jun-17 20:18N 37°06' E 025°07'619.6
2018-Jun-17 20:00N 37°10' E 025°13'816.7
2018-Jun-17 19:31N 37°06' E 025°22'4 8.9
2018-Jun-17 19:00N 37°03' E 025°18'5 0.5
2018-Jun-17 09:54N 36°59' E 025°21'717.8
2018-Jun-17 09:31N 37°06' E 025°20'3 6.4
2018-Jun-17 09:00N 37°09' E 025°19'916.6
2018-Jun-17 08:27N 37°05' E 025°08'2 3.4
2018-Jun-17 08:00N 37°06' E 025°07'1223.2
2018-Jun-17 07:31N 37°13' E 024°55'6122.4
2018-Jun-17 04:47N 37°39' E 023°46'621.7
2018-Jun-17 04:30N 37°44' E 023°41'1122.5
2018-Jun-17 04:01N 37°55' E 023°37'3 5.0
2018-Jun-17 03:30N 37°57' E 023°38'0 0.0
2018-Jun-17 03:00N 37°57' E 023°38'0 0.0
2018-Jun-17 02:30N 37°57' E 023°38'0 0.0
2018-Jun-17 02:00N 37°57' E 023°38'0 0.0
2018-Jun-17 01:24N 37°57' E 023°38'1 3.7
2018-Jun-17 01:01N 37°56' E 023°37'1020.8
2018-Jun-17 00:30N 37°46' E 023°42'5921.6
2018-Jun-16 21:48N 37°18' E 024°47'622.3
2018-Jun-16 21:30N 37°14' E 024°53'1122.0
2018-Jun-16 21:00N 37°07' E 025°04'3 3.9
2018-Jun-16 20:18N 37°06' E 025°07'619.4
2018-Jun-16 20:00N 37°10' E 025°13'816.5
2018-Jun-16 19:31N 37°06' E 025°22'1 1.4
2018-Jun-16 19:00N 37°07' E 025°22'1316.9
2018-Jun-16 18:14N 37°09' E 025°39'419.9
2018-Jun-16 18:00N 37°07' E 025°44'1 0.1
2018-Jun-16 10:42N 37°07' E 025°44'422.2
2018-Jun-16 10:30N 37°09' E 025°40'1019.5
2018-Jun-16 10:00N 37°11' E 025°28'612.2
2018-Jun-16 09:30N 37°06' E 025°22'917.6
2018-Jun-16 09:00N 37°09' E 025°12'5 5.7
2018-Jun-16 08:06N 37°06' E 025°07'222.1
2018-Jun-16 08:00N 37°07' E 025°05'1122.7
2018-Jun-16 07:31N 37°14' E 024°53'5821.9
2018-Jun-16 04:51N 37°39' E 023°47'721.5
2018-Jun-16 04:30N 37°44' E 023°40'1121.9
2018-Jun-16 04:00N 37°55' E 023°37'2 4.3
2018-Jun-16 03:30N 37°57' E 023°38'0 0.0
2018-Jun-16 03:00N 37°57' E 023°38'0 0.0
2018-Jun-16 02:27N 37°57' E 023°38'0 0.0
2018-Jun-16 02:00N 37°57' E 023°38'0 0.0
2018-Jun-16 01:30N 37°57' E 023°38'3 6.5
2018-Jun-16 01:01N 37°54' E 023°38'1121.2
2018-Jun-16 00:30N 37°44' E 023°44'5521.3
2018-Jun-15 21:56N 37°19' E 024°45'922.0
2018-Jun-15 21:30N 37°13' E 024°55'1310.9
2018-Jun-15 20:21N 37°06' E 025°07'618.6
2018-Jun-15 20:00N 37°10' E 025°14'815.6
2018-Jun-15 19:30N 37°06' E 025°22'1 2.9
2018-Jun-15 19:00N 37°08' E 025°23'1215.1
2018-Jun-15 18:12N 37°09' E 025°38'419.5
2018-Jun-15 18:00N 37°08' E 025°42'2 0.2
2018-Jun-15 11:04N 37°07' E 025°44'122.9
2018-Jun-15 11:00N 37°08' E 025°43'1121.8
2018-Jun-15 10:29N 37°12' E 025°30'817.1
2018-Jun-15 10:00N 37°06' E 025°22'0 0.4
2018-Jun-15 09:30N 37°06' E 025°22'12 8.9
2018-Jun-15 08:08N 37°06' E 025°07'322.0
2018-Jun-15 08:00N 37°08' E 025°04'1122.4
2018-Jun-15 07:30N 37°14' E 024°53'5721.6
2018-Jun-15 04:51N 37°39' E 023°47'721.1
2018-Jun-15 04:30N 37°44' E 023°41'1122.2
2018-Jun-15 04:00N 37°55' E 023°37'3 5.1
2018-Jun-15 03:30N 37°57' E 023°38'0 0.0
2018-Jun-15 03:00N 37°57' E 023°38'0 0.0
2018-Jun-15 02:30N 37°57' E 023°38'0 0.0
2018-Jun-15 02:00N 37°57' E 023°38'0 0.0
2018-Jun-15 01:30N 37°57' E 023°38'0 0.0
2018-Jun-15 01:00N 37°57' E 023°38'0 0.0
2018-Jun-15 00:30N 37°57' E 023°38'0 0.0
2018-Jun-15 00:00N 37°57' E 023°38'0 0.0
2018-Jun-14 23:30N 37°57' E 023°38'0 0.0
2018-Jun-14 23:00N 37°57' E 023°38'0 0.0
2018-Jun-14 22:30N 37°57' E 023°38'0 0.0
2018-Jun-14 22:00N 37°57' E 023°38'0 0.0
2018-Jun-14 21:30N 37°57' E 023°38'0 0.0
2018-Jun-14 21:00N 37°57' E 023°38'0 0.0
2018-Jun-14 20:30N 37°57' E 023°38'0 0.0
2018-Jun-14 19:59N 37°57' E 023°38'0 0.0
2018-Jun-14 19:30N 37°57' E 023°38'0 0.0
2018-Jun-14 19:00N 37°57' E 023°38'0 0.0
2018-Jun-14 18:30N 37°57' E 023°38'0 0.0
2018-Jun-14 18:00N 37°57' E 023°38'0 0.0
2018-Jun-14 17:30N 37°57' E 023°38'0 0.0
2018-Jun-14 17:00N 37°57' E 023°38'2 3.3
2018-Jun-14 16:30N 37°55' E 023°37'1021.1
2018-Jun-14 16:01N 37°46' E 023°43'1121.4
2018-Jun-14 15:30N 37°39' E 023°53'4122.1
2018-Jun-14 13:39N 37°31' E 024°44'322.7
2018-Jun-14 13:31N 37°31' E 024°48'8 9.1
2018-Jun-14 12:37N 37°26' E 024°56'113.6
2018-Jun-14 12:30N 37°27' E 024°58'1020.9
2018-Jun-14 12:01N 37°32' E 025°09'611.2
2018-Jun-14 11:30N 37°29' E 025°15'3 7.1
2018-Jun-14 11:00N 37°28' E 025°19'0 0.0
2018-Jun-14 10:30N 37°28' E 025°19'0 0.0
2018-Jun-14 10:00N 37°28' E 025°19'816.8
2018-Jun-14 09:30N 37°32' E 025°10'611.7
2018-Jun-14 09:00N 37°29' E 025°03'6 7.6
2018-Jun-14 08:15N 37°26' E 024°57'618.2
2018-Jun-14 07:54N 37°31' E 024°52'5721.5
2018-Jun-14 05:14N 37°43' E 023°41'522.5
2018-Jun-14 05:00N 37°48' E 023°39'  
Track history (hours):
 
Tides and Currents Weather Stations Pressure Air Temp Water Temp Dewpoint Dewpoint Depression Visibility Wind Speed Wind Dir Waves Ship Positions

Blue Star Naxos

Last reported at 2018-Jun-24 04:51 UTC. Time now 2018-Jun-24 07:05 UTC.
Position N 37°40' E 023°47'.

Length 124 m; draft 5 m.

Type: Passenger vessel. MMSI: 239923000.

Date/timePositionNaut miles runAvg speedWind from/ knotsBaromVisibWave heightAir tempDewpointWater temp
2018-Jun-24 04:51N 37°40' E 023°47'721.2
2018-Jun-24 04:30N 37°45' E 023°40'1122.6
2018-Jun-24 04:01N 37°56' E 023°37'1 2.8
2018-Jun-24 03:30N 37°57' E 023°38'0 0.0
2018-Jun-24 03:00N 37°57' E 023°38'0 0.0
2018-Jun-24 02:30N 37°57' E 023°38'0 0.0
2018-Jun-24 02:01N 37°57' E 023°38'0 0.0
2018-Jun-24 01:30N 37°57' E 023°38'2 3.6
2018-Jun-24 01:01N 37°55' E 023°37'1121.0
2018-Jun-24 00:30N 37°46' E 023°43'5821.6
2018-Jun-23 21:48N 37°18' E 024°47'622.0
2018-Jun-23 21:30N 37°14' E 024°54'1121.7
2018-Jun-23 21:00N 37°07' E 025°05'3 4.1
2018-Jun-23 20:19N 37°06' E 025°07'619.2
2018-Jun-23 20:00N 37°10' E 025°13'816.1
2018-Jun-23 19:30N 37°06' E 025°22'2 4.1
2018-Jun-23 19:00N 37°08' E 025°24'1216.7
2018-Jun-23 18:17N 37°10' E 025°38'5 0.7
2018-Jun-23 10:53N 37°07' E 025°44'1320.2
2018-Jun-23 10:15N 37°11' E 025°29'521.5
2018-Jun-23 10:01N 37°08' E 025°24'2 4.4
2018-Jun-23 09:31N 37°06' E 025°22'917.5
2018-Jun-23 09:00N 37°09' E 025°12'5 5.9
2018-Jun-23 08:09N 37°06' E 025°07'322.3
2018-Jun-23 08:00N 37°08' E 025°04'1122.4
2018-Jun-23 07:31N 37°14' E 024°53'5921.9
2018-Jun-23 04:49N 37°39' E 023°46'720.8
2018-Jun-23 04:30N 37°44' E 023°40'1122.3
2018-Jun-23 04:00N 37°55' E 023°37'2 4.2
2018-Jun-23 03:31N 37°57' E 023°38'0 0.0
2018-Jun-23 03:00N 37°57' E 023°38'0 0.0
2018-Jun-23 02:31N 37°57' E 023°38'0 0.0
2018-Jun-23 02:00N 37°57' E 023°38'0 0.0
2018-Jun-23 01:31N 37°57' E 023°38'3 6.5
2018-Jun-23 01:01N 37°54' E 023°38'1121.3
2018-Jun-23 00:30N 37°44' E 023°43'5621.1
2018-Jun-22 21:52N 37°19' E 024°45'821.8
2018-Jun-22 21:30N 37°14' E 024°53'1121.6
2018-Jun-22 21:00N 37°07' E 025°04'4 6.6
2018-Jun-22 20:24N 37°05' E 025°08'615.0
2018-Jun-22 20:00N 37°10' E 025°13'816.2
2018-Jun-22 19:30N 37°06' E 025°22'2 3.2
2018-Jun-22 19:00N 37°08' E 025°23'1317.1
2018-Jun-22 18:16N 37°10' E 025°39'520.1
2018-Jun-22 18:00N 37°07' E 025°44'0 0.0
2018-Jun-22 11:00N 37°07' E 025°44'1320.7
2018-Jun-22 10:22N 37°12' E 025°29'821.5
2018-Jun-22 10:00N 37°07' E 025°22'0 1.0
2018-Jun-22 09:30N 37°06' E 025°22'714.3
2018-Jun-22 09:00N 37°10' E 025°15'7 8.5
2018-Jun-22 08:10N 37°05' E 025°07'322.7
2018-Jun-22 08:00N 37°08' E 025°04'1122.7
2018-Jun-22 07:30N 37°15' E 024°53'5821.9
2018-Jun-22 04:52N 37°39' E 023°47'820.9
2018-Jun-22 04:28N 37°45' E 023°40'1021.8
2018-Jun-22 04:01N 37°55' E 023°37'2 3.9
2018-Jun-22 03:30N 37°57' E 023°38'0 0.0
2018-Jun-22 03:00N 37°57' E 023°38'0 0.0
2018-Jun-22 02:30N 37°57' E 023°38'0 0.0
2018-Jun-22 02:00N 37°57' E 023°38'0 0.0
2018-Jun-22 01:29N 37°57' E 023°38'2 3.7
2018-Jun-22 01:00N 37°55' E 023°37'1121.4
2018-Jun-22 00:30N 37°46' E 023°43'1221.0
2018-Jun-21 23:56N 37°38' E 023°54'4722.1
2018-Jun-21 21:48N 37°17' E 024°48'722.4
2018-Jun-21 21:30N 37°14' E 024°54'1122.1
2018-Jun-21 21:00N 37°07' E 025°05'2 3.5
2018-Jun-21 20:27N 37°06' E 025°07'819.1
2018-Jun-21 20:01N 37°10' E 025°16'612.1
2018-Jun-21 19:31N 37°06' E 025°22'510.7
2018-Jun-21 19:01N 37°02' E 025°19'3 0.4
2018-Jun-21 10:19N 36°59' E 025°21'618.2
2018-Jun-21 10:00N 37°05' E 025°19'3 5.9
2018-Jun-21 09:28N 37°06' E 025°22'816.9
2018-Jun-21 09:00N 37°10' E 025°13'6 7.7
2018-Jun-21 08:10N 37°06' E 025°07'422.6
2018-Jun-21 08:00N 37°08' E 025°03'1122.8
2018-Jun-21 07:30N 37°15' E 024°52'5621.8
2018-Jun-21 04:55N 37°39' E 023°48'921.0
2018-Jun-21 04:30N 37°45' E 023°40'1122.0
2018-Jun-21 04:00N 37°56' E 023°37'1 2.9
2018-Jun-21 03:30N 37°57' E 023°38'0 0.0
2018-Jun-21 02:59N 37°57' E 023°38'0 0.0
2018-Jun-21 02:30N 37°57' E 023°38'0 0.0
2018-Jun-21 02:00N 37°57' E 023°38'0 0.0
2018-Jun-21 01:29N 37°57' E 023°38'1 2.8
2018-Jun-21 01:01N 37°56' E 023°37'1020.5
2018-Jun-21 00:30N 37°47' E 023°42'1121.4
2018-Jun-21 00:00N 37°39' E 023°51'4822.0
2018-Jun-20 21:50N 37°19' E 024°46'722.2
2018-Jun-20 21:30N 37°14' E 024°53'1121.9
2018-Jun-20 21:00N 37°08' E 025°04'4 6.3
2018-Jun-20 20:21N 37°05' E 025°08'515.1
2018-Jun-20 19:59N 37°09' E 025°13'816.9
2018-Jun-20 19:30N 37°06' E 025°22'1 1.2
2018-Jun-20 19:00N 37°07' E 025°22'1316.7
2018-Jun-20 18:13N 37°10' E 025°38'419.6
2018-Jun-20 18:00N 37°08' E 025°43'1 0.2
2018-Jun-20 10:49N 37°07' E 025°44'1320.8
2018-Jun-20 10:13N 37°12' E 025°29'521.2
2018-Jun-20 09:59N 37°09' E 025°25'3 6.9
2018-Jun-20 09:31N 37°06' E 025°22'916.4
2018-Jun-20 08:58N 37°09' E 025°12'5 6.4
2018-Jun-20 08:11N 37°06' E 025°07'422.2
2018-Jun-20 08:00N 37°08' E 025°03'1122.4
2018-Jun-20 07:30N 37°15' E 024°52'5821.6
2018-Jun-20 04:50N 37°39' E 023°46'721.1
2018-Jun-20 04:30N 37°45' E 023°40'1122.2
2018-Jun-20 04:01N 37°55' E 023°37'2 3.5
2018-Jun-20 03:31N 37°57' E 023°38'0 0.0
2018-Jun-20 03:00N 37°57' E 023°38'0 0.0
2018-Jun-20 02:30N 37°57' E 023°38'0 0.0
2018-Jun-20 02:01N 37°57' E 023°38'0 0.1
2018-Jun-20 01:30N 37°57' E 023°38'2 4.0
2018-Jun-20 01:01N 37°55' E 023°37'1121.2
2018-Jun-20 00:30N 37°45' E 023°43'5821.4
2018-Jun-19 21:47N 37°18' E 024°47'621.8
2018-Jun-19 21:30N 37°14' E 024°53'1121.5
2018-Jun-19 21:01N 37°08' E 025°04'3 4.9
2018-Jun-19 20:22N 37°06' E 025°07'719.0
2018-Jun-19 20:00N 37°10' E 025°14'714.8
2018-Jun-19 19:31N 37°06' E 025°22'5 9.5
2018-Jun-19 19:01N 37°03' E 025°18'4 0.5
2018-Jun-19 10:07N 36°59' E 025°21'219.8
2018-Jun-19 10:01N 37°01' E 025°20'611.2
2018-Jun-19 09:30N 37°06' E 025°22'612.2
2018-Jun-19 09:00N 37°10' E 025°16'9 9.3
2018-Jun-19 08:05N 37°06' E 025°07'222.4
2018-Jun-19 08:00N 37°07' E 025°05'1122.7
2018-Jun-19 07:30N 37°14' E 024°54'6021.9
2018-Jun-19 04:45N 37°40' E 023°45'521.7
2018-Jun-19 04:30N 37°44' E 023°41'1122.5
2018-Jun-19 04:00N 37°55' E 023°37'2 4.9
2018-Jun-19 03:30N 37°57' E 023°38'0 0.0
2018-Jun-19 03:01N 37°57' E 023°38'0 0.0
2018-Jun-19 02:30N 37°57' E 023°38'0 0.0
2018-Jun-19 01:59N 37°57' E 023°38'0 0.0
2018-Jun-19 01:30N 37°57' E 023°38'1 2.8
2018-Jun-19 01:00N 37°56' E 023°37'1020.5
2018-Jun-19 00:31N 37°47' E 023°42'5921.6
2018-Jun-18 21:47N 37°18' E 024°47'622.4
2018-Jun-18 21:30N 37°14' E 024°53'1122.1
2018-Jun-18 21:00N 37°08' E 025°04'3 3.9
2018-Jun-18 20:18N 37°06' E 025°07'619.6
2018-Jun-18 20:00N 37°09' E 025°13'816.5
2018-Jun-18 19:30N 37°06' E 025°22'1 2.5
2018-Jun-18 19:01N 37°07' E 025°23'1216.7
2018-Jun-18 18:16N 37°10' E 025°38'519.3
2018-Jun-18 18:00N 37°07' E 025°44'1 0.1
2018-Jun-18 10:25N 37°07' E 025°44'1320.4
2018-Jun-18 09:47N 37°12' E 025°29'621.8
2018-Jun-18 09:30N 37°08' E 025°23'4 7.5
2018-Jun-18 09:00N 37°09' E 025°19'911.2
2018-Jun-18 08:11N 37°05' E 025°08'420.5
2018-Jun-18 08:00N 37°07' E 025°05'1122.9
2018-Jun-18 07:30N 37°14' E 024°53'6122.1
2018-Jun-18 04:46N 37°40' E 023°44'622.3
2018-Jun-18 04:30N 37°45' E 023°40'1122.4
2018-Jun-18 04:00N 37°56' E 023°37'2 3.3
2018-Jun-18 03:30N 37°57' E 023°38'0 0.0
2018-Jun-18 03:00N 37°57' E 023°38'0 0.0
2018-Jun-18 02:30N 37°57' E 023°38'0 0.0
2018-Jun-18 02:00N 37°57' E 023°38'0 0.0
2018-Jun-18 01:29N 37°57' E 023°38'1 2.8
2018-Jun-18 01:00N 37°56' E 023°37'1020.6
2018-Jun-18 00:30N 37°47' E 023°42'5821.6
2018-Jun-17 21:50N 37°18' E 024°46'822.7
2018-Jun-17 21:31N 37°14' E 024°53'1121.9
2018-Jun-17 21:01N 37°07' E 025°04'3 4.2
2018-Jun-17 20:18N 37°06' E 025°07'619.6
2018-Jun-17 20:00N 37°10' E 025°13'816.7
2018-Jun-17 19:31N 37°06' E 025°22'4 8.9
2018-Jun-17 19:00N 37°03' E 025°18'5 0.5
2018-Jun-17 09:54N 36°59' E 025°21'717.8
2018-Jun-17 09:31N 37°06' E 025°20'3 6.4
2018-Jun-17 09:00N 37°09' E 025°19'916.6
2018-Jun-17 08:27N 37°05' E 025°08'2 3.4
2018-Jun-17 08:00N 37°06' E 025°07'1223.2
2018-Jun-17 07:31N 37°13' E 024°55'6122.4
2018-Jun-17 04:47N 37°39' E 023°46'621.7
2018-Jun-17 04:30N 37°44' E 023°41'1122.5
2018-Jun-17 04:01N 37°55' E 023°37'3 5.0
2018-Jun-17 03:30N 37°57' E 023°38'0 0.0
2018-Jun-17 03:00N 37°57' E 023°38'0 0.0
2018-Jun-17 02:30N 37°57' E 023°38'0 0.0
2018-Jun-17 02:00N 37°57' E 023°38'0 0.0
2018-Jun-17 01:24N 37°57' E 023°38'1 3.7
2018-Jun-17 01:01N 37°56' E 023°37'1020.8
2018-Jun-17 00:30N 37°46' E 023°42'5921.6
2018-Jun-16 21:48N 37°18' E 024°47'622.3
2018-Jun-16 21:30N 37°14' E 024°53'1122.0
2018-Jun-16 21:00N 37°07' E 025°04'3 3.9
2018-Jun-16 20:18N 37°06' E 025°07'619.4
2018-Jun-16 20:00N 37°10' E 025°13'816.5
2018-Jun-16 19:31N 37°06' E 025°22'1 1.4
2018-Jun-16 19:00N 37°07' E 025°22'1316.9
2018-Jun-16 18:14N 37°09' E 025°39'419.9
2018-Jun-16 18:00N 37°07' E 025°44'1 0.1
2018-Jun-16 10:42N 37°07' E 025°44'422.2
2018-Jun-16 10:30N 37°09' E 025°40'1019.5
2018-Jun-16 10:00N 37°11' E 025°28'612.2
2018-Jun-16 09:30N 37°06' E 025°22'917.6
2018-Jun-16 09:00N 37°09' E 025°12'5 5.7
2018-Jun-16 08:06N 37°06' E 025°07'222.1
2018-Jun-16 08:00N 37°07' E 025°05'1122.7
2018-Jun-16 07:31N 37°14' E 024°53'5821.9
2018-Jun-16 04:51N 37°39' E 023°47'721.5
2018-Jun-16 04:30N 37°44' E 023°40'1121.9
2018-Jun-16 04:00N 37°55' E 023°37'2 4.3
2018-Jun-16 03:30N 37°57' E 023°38'0 0.0
2018-Jun-16 03:00N 37°57' E 023°38'0 0.0
2018-Jun-16 02:27N 37°57' E 023°38'0 0.0
2018-Jun-16 02:00N 37°57' E 023°38'0 0.0
2018-Jun-16 01:30N 37°57' E 023°38'3 6.5
2018-Jun-16 01:01N 37°54' E 023°38'1121.2
2018-Jun-16 00:30N 37°44' E 023°44'5521.3
2018-Jun-15 21:56N 37°19' E 024°45'922.0
2018-Jun-15 21:30N 37°13' E 024°55'1310.9
2018-Jun-15 20:21N 37°06' E 025°07'618.6
2018-Jun-15 20:00N 37°10' E 025°14'815.6
2018-Jun-15 19:30N 37°06' E 025°22'1 2.9
2018-Jun-15 19:00N 37°08' E 025°23'1215.1
2018-Jun-15 18:12N 37°09' E 025°38'419.5
2018-Jun-15 18:00N 37°08' E 025°42'2 0.2
2018-Jun-15 11:04N 37°07' E 025°44'122.9
2018-Jun-15 11:00N 37°08' E 025°43'1121.8
2018-Jun-15 10:29N 37°12' E 025°30'817.1
2018-Jun-15 10:00N 37°06' E 025°22'0 0.4
2018-Jun-15 09:30N 37°06' E 025°22'12 8.9
2018-Jun-15 08:08N 37°06' E 025°07'322.0
2018-Jun-15 08:00N 37°08' E 025°04'1122.4
2018-Jun-15 07:30N 37°14' E 024°53'5721.6
2018-Jun-15 04:51N 37°39' E 023°47'721.1
2018-Jun-15 04:30N 37°44' E 023°41'1122.2
2018-Jun-15 04:00N 37°55' E 023°37'3 5.1
2018-Jun-15 03:30N 37°57' E 023°38'0 0.0
2018-Jun-15 03:00N 37°57' E 023°38'0 0.0
2018-Jun-15 02:30N 37°57' E 023°38'0 0.0
2018-Jun-15 02:00N 37°57' E 023°38'0 0.0
2018-Jun-15 01:30N 37°57' E 023°38'0 0.0
2018-Jun-15 01:00N 37°57' E 023°38'0 0.0
2018-Jun-15 00:30N 37°57' E 023°38'0 0.0
2018-Jun-15 00:00N 37°57' E 023°38'0 0.0
2018-Jun-14 23:30N 37°57' E 023°38'0 0.0
2018-Jun-14 23:00N 37°57' E 023°38'0 0.0
2018-Jun-14 22:30N 37°57' E 023°38'0 0.0
2018-Jun-14 22:00N 37°57' E 023°38'0 0.0
2018-Jun-14 21:30N 37°57' E 023°38'0 0.0
2018-Jun-14 21:00N 37°57' E 023°38'0 0.0
2018-Jun-14 20:30N 37°57' E 023°38'0 0.0
2018-Jun-14 19:59N 37°57' E 023°38'0 0.0
2018-Jun-14 19:30N 37°57' E 023°38'0 0.0
2018-Jun-14 19:00N 37°57' E 023°38'0 0.0
2018-Jun-14 18:30N 37°57' E 023°38'0 0.0
2018-Jun-14 18:00N 37°57' E 023°38'0 0.0
2018-Jun-14 17:30N 37°57' E 023°38'0 0.0
2018-Jun-14 17:00N 37°57' E 023°38'2 3.3
2018-Jun-14 16:30N 37°55' E 023°37'1021.1
2018-Jun-14 16:01N 37°46' E 023°43'1121.4
2018-Jun-14 15:30N 37°39' E 023°53'4122.1
2018-Jun-14 13:39N 37°31' E 024°44'322.7
2018-Jun-14 13:31N 37°31' E 024°48'8 9.1
2018-Jun-14 12:37N 37°26' E 024°56'113.6
2018-Jun-14 12:30N 37°27' E 024°58'1020.9
2018-Jun-14 12:01N 37°32' E 025°09'611.2
2018-Jun-14 11:30N 37°29' E 025°15'3 7.1
2018-Jun-14 11:00N 37°28' E 025°19'0 0.0
2018-Jun-14 10:30N 37°28' E 025°19'0 0.0
2018-Jun-14 10:00N 37°28' E 025°19'816.8
2018-Jun-14 09:30N 37°32' E 025°10'611.7
2018-Jun-14 09:00N 37°29' E 025°03'6 7.6
2018-Jun-14 08:15N 37°26' E 024°57'618.2
2018-Jun-14 07:54N 37°31' E 024°52'5721.5
2018-Jun-14 05:14N 37°43' E 023°41'522.5
2018-Jun-14 05:00N 37°48' E 023°39'  

Dump ship's entire track history